Airfield :
LOGIN :

Register | Disclaimer

   EN    FR    IT 

 










Legend :    VFR   Marginal VFR   IFR   Intensive IFR   Very Intensive IFR
Visi :
Ceiling :
>= 8 km
>= 3000ft
5 to 8 km
1000 to 3000 ft
1500m to 5 km
500 to 1000 ft
800 to 1500m
200 to 500 ft
< 800m
< 200 ft
Symbols :   Thunderstorms  Fog  Heavy snow  Heavy precipitations  Wind > 20 kt
SIGMETs :     Misc.  Thunderstorms  Icing  Turbulence  Mountain Waves  Volcanic Ashes






- Airport Elevation : 102 ft
- IATA code : CNG


LFBG - Cognac

CURRENT METAR :
  • 110030Z AUTO 18007KT 9999 FEW021 OVC035 08/05 Q1019 BECMG BKN014 OVC030

EXPIRED METARs :
  • 110000Z AUTO 17004KT 9999 SCT042 BKN049 OVC056 08/05 Q1019 BECMG BKN014 OVC030
  • 102330Z AUTO 15005KT CAVOK 08/05 Q1019 BECMG BKN014 OVC030
  • 102300Z AUTO 14009KT 9999 FEW027 BKN074 BKN088 08/05 Q1019 NOSIG
  • 102230Z AUTO 14009KT CAVOK 08/05 Q1020 NOSIG
  • 102200Z AUTO 14006KT CAVOK 07/05 Q1020 NOSIG

TAF TAF LFBG
Valid from the 10 at 21:00 until the 11 at 21:00 UTC


102000Z 1021/1121 16008KT CAVOK
BECMG 1101/1103 5000 -RA BKN014 OVC030
TEMPO 1104/1108 3000 RA BKN005
BECMG 1107/1109 29012KT
TEMPO 1109/1114 4000 -SHRA SCT020TCU
TEMPO 1114/1120 27020G35KT 2000 SHRA BKN020CB



MET'MAP, your aeronautical weather chart ! - Copyright ORBIFLY December 2007 - Disclaimer

ORBIFLY MET'MAP TEAM :

Programming & Development : Alexandra Zaïnal
Concept & original design : Baudouin d'Aumeries
Assistance for programming : Marc-Olivier Méhu
Technical & hardware support : Manuel Goepfert

Contact : metmap@orbifly.com




SOURCES & CREDITS :

   NOAA